Time;durP1;ratioP1;P1;durP2;ratioP2;P2;SDS_P1;SDS_P2;PMS_P1;PMS_P2;Temp;Humidity;BMP_temperature;BMP_pressure;BME280_temperature;BME280_humidity;BME280_pressure;Samples;Min_cycle;Max_cycle;Signal;HPM_P1;HPM_P2
2022/11/02 00:00:57;;;;;;;1.53;1.43;;;10.80;99.90;;;;;;5042896;28;20478;-71
2022/11/02 00:03:23;;;;;;;5.80;2.20;;;10.80;99.90;;;;;;5058576;28;20454;-70
2022/11/02 00:05:48;;;;;;;1.63;1.47;;;10.80;99.90;;;;;;5039800;28;20504;-71
2022/11/02 00:08:14;;;;;;;3.80;1.60;;;10.80;99.90;;;;;;5058841;28;20595;-71
2022/11/02 00:10:40;;;;;;;3.03;1.30;;;10.80;99.90;;;;;;5044145;28;20272;-70
2022/11/02 00:13:08;;;;;;;4.90;1.50;;;10.70;99.90;;;;;;5040469;28;20219;-70
2022/11/02 00:15:35;;;;;;;3.07;1.37;;;10.70;99.90;;;;;;5038378;28;20224;-70
2022/11/02 00:18:11;;;;;;;8.40;1.93;;;10.70;99.90;;;;;;5058396;28;20448;-71
2022/11/02 00:20:39;;;;;;;4.67;1.80;;;10.70;99.90;;;;;;5041183;28;20458;-70
2022/11/02 00:23:06;;;;;;;1.87;1.17;;;10.70;99.90;;;;;;5053022;28;20484;-71
2022/11/02 00:25:33;;;;;;;1.67;1.40;;;10.70;99.90;;;;;;5042795;28;20577;-71
2022/11/02 00:28:01;;;;;;;3.97;1.40;;;10.70;99.90;;;;;;5027852;28;20539;-71
2022/11/02 00:30:27;;;;;;;5.83;2.20;;;10.70;99.90;;;;;;5032689;28;20538;-69
2022/11/02 00:32:54;;;;;;;1.47;1.03;;;10.60;99.90;;;;;;5040760;28;20221;-71
2022/11/02 00:35:19;;;;;;;1.50;1.40;;;10.60;99.90;;;;;;5041312;28;20508;-71
2022/11/02 00:37:45;;;;;;;1.40;1.10;;;10.50;99.90;;;;;;5043103;28;20443;-70
2022/11/02 00:40:11;;;;;;;1.20;1.10;;;10.60;99.90;;;;;;5041650;28;20269;-72
2022/11/02 00:42:37;;;;;;;1.37;1.23;;;10.60;99.90;;;;;;5039682;28;20220;-72
2022/11/02 00:45:03;;;;;;;6.93;1.50;;;10.60;99.90;;;;;;5051822;28;20458;-70
2022/11/02 00:47:29;;;;;;;2.50;1.20;;;10.50;99.90;;;;;;5040929;28;20212;-70
2022/11/02 00:49:55;;;;;;;3.00;1.50;;;10.50;99.90;;;;;;5054629;28;20998;-71
2022/11/02 00:52:21;;;;;;;2.60;1.40;;;10.50;99.90;;;;;;5042705;28;20288;-71
2022/11/02 00:54:49;;;;;;;1.40;1.03;;;10.50;99.90;;;;;;5043447;28;20699;-70
2022/11/02 00:57:15;;;;;;;3.77;1.33;;;10.50;99.90;;;;;;5047434;28;20454;-71
2022/11/02 00:59:41;;;;;;;1.97;1.20;;;10.50;99.90;;;;;;5048006;28;20234;-70
2022/11/02 01:02:06;;;;;;;1.23;1.13;;;10.50;99.90;;;;;;5036787;28;20655;-71
2022/11/02 01:04:32;;;;;;;6.87;1.90;;;10.40;99.90;;;;;;5039011;28;20261;-70
2022/11/02 01:06:58;;;;;;;3.43;1.50;;;10.40;99.90;;;;;;5051290;28;20208;-71
2022/11/02 01:09:23;;;;;;;1.97;1.30;;;10.30;99.90;;;;;;5030799;28;20315;-71
2022/11/02 01:11:50;;;;;;;1.80;1.20;;;10.40;99.90;;;;;;5018234;28;20231;-71
2022/11/02 01:14:15;;;;;;;2.50;0.97;;;10.40;99.90;;;;;;5044806;28;20224;-71
2022/11/02 01:16:43;;;;;;;2.50;1.80;;;10.40;99.90;;;;;;5031113;28;20449;-70
2022/11/02 01:19:10;;;;;;;2.20;1.33;;;10.40;99.90;;;;;;5040038;28;20247;-70
2022/11/02 01:21:35;;;;;;;1.33;1.23;;;10.40;99.90;;;;;;5055999;28;20465;-69
2022/11/02 01:24:01;;;;;;;2.60;1.07;;;10.30;99.90;;;;;;5054912;28;20457;-71
2022/11/02 01:26:27;;;;;;;1.20;1.10;;;10.30;99.90;;;;;;5044912;28;20216;-71
2022/11/02 01:28:53;;;;;;;1.60;1.33;;;10.30;99.90;;;;;;5034716;28;20224;-71
2022/11/02 01:31:19;;;;;;;1.70;1.00;;;10.30;99.90;;;;;;5048140;28;20235;-70
2022/11/02 01:33:45;;;;;;;6.30;1.50;;;10.30;99.90;;;;;;5042362;28;20477;-71
2022/11/02 01:36:13;;;;;;;6.70;1.43;;;10.30;99.90;;;;;;5036337;28;20228;-70
2022/11/02 01:38:39;;;;;;;2.13;1.93;;;10.30;99.90;;;;;;5046133;28;20508;-70
2022/11/02 01:41:05;;;;;;;2.80;1.57;;;10.30;99.90;;;;;;5049236;28;20470;-70
2022/11/02 01:43:35;;;;;;;4.57;1.10;;;10.30;99.90;;;;;;5046737;28;20461;-71
2022/11/02 01:46:10;;;;;;;1.73;1.17;;;10.30;99.90;;;;;;5048529;28;20442;-71
2022/11/02 01:48:41;;;;;;;1.93;1.27;;;10.30;99.90;;;;;;5030586;28;20831;-70
2022/11/02 01:51:14;;;;;;;1.27;1.17;;;10.30;99.90;;;;;;5030641;28;20486;-70
2022/11/02 01:53:43;;;;;;;1.23;1.13;;;10.30;99.90;;;;;;5046601;28;20482;-71
2022/11/02 01:56:12;;;;;;;1.90;1.33;;;10.30;99.90;;;;;;5036688;28;20523;-70
2022/11/02 01:58:38;;;;;;;2.33;1.30;;;10.30;99.90;;;;;;5040022;28;20474;-70
2022/11/02 02:01:04;;;;;;;1.00;0.80;;;10.30;99.90;;;;;;5052047;28;20472;-70
2022/11/02 02:03:31;;;;;;;4.10;1.30;;;10.30;99.90;;;;;;5034013;28;20664;-70
2022/11/02 02:06:04;;;;;;;2.00;1.23;;;10.30;99.90;;;;;;5023923;28;20216;-71
2022/11/02 02:08:31;;;;;;;3.93;1.27;;;10.30;99.90;;;;;;5036081;28;20501;-71
2022/11/02 02:10:57;;;;;;;2.80;1.47;;;10.30;99.90;;;;;;5053967;28;20466;-71
2022/11/02 02:13:26;;;;;;;3.37;1.60;;;10.30;99.90;;;;;;5040083;28;20883;-70
2022/11/02 02:15:55;;;;;;;3.07;1.43;;;10.30;99.90;;;;;;5037802;28;20455;-70
2022/11/02 02:18:43;;;;;;;3.33;1.77;;;10.30;99.90;;;;;;5042738;28;20479;-71
2022/11/02 02:21:59;;;;;;;2.27;1.50;;;10.30;99.90;;;;;;5038543;28;20491;-70
2022/11/02 02:24:48;;;;;;;2.07;1.63;;;10.20;99.90;;;;;;5034939;28;20459;-70
2022/11/02 02:27:19;;;;;;;4.57;1.30;;;10.20;99.90;;;;;;5025289;28;21038;-71
2022/11/02 02:29:50;;;;;;;2.43;1.50;;;10.20;99.90;;;;;;5036255;28;20447;-70
2022/11/02 02:32:27;;;;;;;2.30;1.10;;;10.20;99.90;;;;;;5019317;28;20469;-71
2022/11/02 02:35:00;;;;;;;7.90;1.20;;;10.10;99.90;;;;;;5043885;28;20458;-71
2022/11/02 02:37:44;;;;;;;4.40;1.47;;;10.10;99.90;;;;;;5034274;28;20462;-70
2022/11/02 02:40:19;;;;;;;1.30;1.07;;;10.10;99.90;;;;;;5042551;28;20552;-69
2022/11/02 02:42:57;;;;;;;5.27;1.07;;;10.10;99.90;;;;;;5042733;28;20445;-70
2022/11/02 02:45:44;;;;;;;3.17;1.67;;;10.10;99.90;;;;;;5041401;28;20597;-70
2022/11/02 02:48:18;;;;;;;3.70;0.97;;;10.10;99.90;;;;;;5030195;28;20466;-71
2022/11/02 02:51:00;;;;;;;6.70;1.83;;;10.00;99.90;;;;;;5058897;28;20465;-70
2022/11/02 02:53:40;;;;;;;2.50;1.27;;;10.00;99.90;;;;;;5040590;28;20978;-68
2022/11/02 02:56:08;;;;;;;0.93;0.83;;;10.00;99.90;;;;;;5045353;28;20477;-71
2022/11/02 02:58:44;;;;;;;5.67;1.60;;;10.00;99.90;;;;;;5060348;28;20462;-70
2022/11/02 03:01:12;;;;;;;6.03;1.63;;;10.00;99.90;;;;;;5044563;28;20878;-71
2022/11/02 03:03:41;;;;;;;3.50;1.87;;;10.00;99.90;;;;;;5044276;28;20500;-71
2022/11/02 03:06:18;;;;;;;3.27;1.93;;;10.00;99.90;;;;;;5046535;28;20466;-71
2022/11/02 03:09:08;;;;;;;7.17;1.53;;;10.00;99.90;;;;;;5043978;28;20542;-71
2022/11/02 03:12:00;;;;;;;3.10;1.70;;;10.00;99.90;;;;;;5054874;28;20781;-70
2022/11/02 03:14:45;;;;;;;8.90;1.87;;;10.00;99.90;;;;;;5025700;28;20448;-71
2022/11/02 03:17:18;;;;;;;4.00;1.50;;;10.00;99.90;;;;;;5029655;28;20460;-70
2022/11/02 03:20:12;;;;;;;3.50;1.70;;;10.00;99.90;;;;;;5028591;28;20533;-71
2022/11/02 03:23:01;;;;;;;2.80;1.30;;;10.00;99.90;;;;;;5040397;28;20494;-70
2022/11/02 03:25:33;;;;;;;4.00;1.50;;;10.00;99.90;;;;;;5046628;28;20562;-70
2022/11/02 03:28:24;;;;;;;4.17;1.70;;;10.00;99.90;;;;;;5040434;28;20518;-71
2022/11/02 03:31:08;;;;;;;3.10;1.50;;;10.00;99.90;;;;;;5057475;28;20535;-71
2022/11/02 03:34:15;;;;;;;4.20;1.27;;;10.00;99.90;;;;;;5034991;28;20957;-71
2022/11/02 03:36:53;;;;;;;2.23;1.50;;;10.10;99.90;;;;;;5058740;28;20481;-70
2022/11/02 03:39:34;;;;;;;2.30;1.53;;;10.10;99.90;;;;;;5045290;28;20482;-70
2022/11/02 03:42:03;;;;;;;1.63;1.20;;;10.10;99.90;;;;;;5040515;28;20462;-70
2022/11/02 03:44:34;;;;;;;1.03;0.90;;;10.10;99.90;;;;;;5053260;28;20443;-71
2022/11/02 03:47:01;;;;;;;2.40;1.37;;;10.10;99.90;;;;;;5040937;28;20463;-71
2022/11/02 03:49:30;;;;;;;11.20;2.07;;;10.20;99.90;;;;;;5044351;28;20455;-71
2022/11/02 03:52:02;;;;;;;7.40;1.10;;;10.20;99.90;;;;;;5045444;28;20528;-70
2022/11/02 03:55:08;;;;;;;6.10;1.67;;;10.20;99.90;;;;;;5059760;28;20541;-70
2022/11/02 03:57:41;;;;;;;6.43;1.90;;;10.20;99.90;;;;;;5030961;28;20457;-71
2022/11/02 04:00:07;;;;;;;2.63;1.60;;;10.20;99.90;;;;;;5035681;28;21019;-70
2022/11/02 04:02:43;;;;;;;2.17;1.00;;;10.20;99.90;;;;;;5038824;28;20510;-71
2022/11/02 04:05:09;;;;;;;2.67;1.40;;;10.30;99.90;;;;;;5046414;28;20454;-71
2022/11/02 04:10:34;;;;;;;3.47;1.60;;;10.30;99.90;;;;;;5020527;28;20454;-70
2022/11/02 04:15:44;;;;;;;1.70;1.30;;;10.30;99.90;;;;;;5057644;28;20219;-71
2022/11/02 04:20:57;;;;;;;7.83;1.67;;;10.30;99.90;;;;;;5048009;28;20466;-70
2022/11/02 04:26:07;;;;;;;1.57;0.93;;;10.40;99.90;;;;;;5044390;28;20458;-70
2022/11/02 04:28:38;;;;;;;2.20;1.30;;;10.40;99.90;;;;;;5056519;28;20460;-70
2022/11/02 04:31:03;;;;;;;1.87;1.30;;;10.40;99.90;;;;;;5040509;28;20467;-71
2022/11/02 04:33:35;;;;;;;3.50;1.50;;;10.40;99.90;;;;;;5041751;28;20238;-73
2022/11/02 04:36:07;;;;;;;1.67;1.27;;;10.40;99.90;;;;;;5039386;28;20468;-71
2022/11/02 04:38:40;;;;;;;6.00;1.50;;;10.40;99.90;;;;;;5058789;28;20854;-70
2022/11/02 04:42:00;;;;;;;4.97;1.80;;;10.40;99.90;;;;;;5041661;28;20879;-70
2022/11/02 04:44:29;;;;;;;8.00;1.40;;;10.40;99.90;;;;;;5042618;28;20459;-70
2022/11/02 04:47:01;;;;;;;2.63;1.50;;;10.40;99.90;;;;;;5039709;28;20979;-70
2022/11/02 04:49:30;;;;;;;1.30;1.20;;;10.40;99.90;;;;;;5036715;28;20469;-69
2022/11/02 04:51:56;;;;;;;5.30;1.27;;;10.40;99.90;;;;;;5041511;28;20455;-70
2022/11/02 04:54:23;;;;;;;1.67;1.57;;;10.30;99.90;;;;;;5042061;28;20465;-69
2022/11/02 04:56:54;;;;;;;7.03;1.50;;;10.30;99.90;;;;;;5037112;28;20505;-70
2022/11/02 04:59:22;;;;;;;7.57;1.80;;;10.30;99.90;;;;;;5058106;28;21017;-70
2022/11/02 05:01:48;;;;;;;1.30;1.20;;;10.30;99.90;;;;;;5041619;28;20494;-70
2022/11/02 05:04:15;;;;;;;1.70;1.60;;;10.30;99.90;;;;;;5063003;28;20212;-71
2022/11/02 05:06:40;;;;;;;2.90;1.47;;;10.30;99.90;;;;;;5038959;28;20458;-70
2022/11/02 05:09:08;;;;;;;7.27;1.87;;;10.30;99.90;;;;;;5044958;28;20216;-70
2022/11/02 05:11:36;;;;;;;9.37;1.90;;;10.30;99.90;;;;;;5038082;28;20946;-70
2022/11/02 05:14:01;;;;;;;6.17;1.73;;;10.30;99.90;;;;;;5035570;28;20471;-69
2022/11/02 05:16:28;;;;;;;6.93;1.50;;;10.30;99.90;;;;;;5058716;28;20720;-71
2022/11/02 05:18:54;;;;;;;1.90;1.47;;;10.30;99.90;;;;;;5057968;28;20462;-70
2022/11/02 05:21:21;;;;;;;3.23;1.57;;;10.30;99.90;;;;;;5038484;28;20215;-70
2022/11/02 05:23:48;;;;;;;2.30;1.50;;;10.30;99.90;;;;;;5051052;28;20465;-70
2022/11/02 05:26:13;;;;;;;4.83;1.77;;;10.30;99.90;;;;;;5043752;28;20447;-70
2022/11/02 05:28:43;;;;;;;10.23;1.73;;;10.30;99.90;;;;;;5042890;28;20216;-70
2022/11/02 05:31:09;;;;;;;2.60;1.63;;;10.30;99.90;;;;;;5041262;28;20561;-70
2022/11/02 05:33:35;;;;;;;4.57;2.00;;;10.30;99.90;;;;;;5053364;28;25262;-70
2022/11/02 05:36:08;;;;;;;3.73;1.40;;;10.30;99.90;;;;;;5045638;28;20220;-71
2022/11/02 05:38:37;;;;;;;2.20;1.17;;;10.30;99.90;;;;;;5052045;28;20824;-72
2022/11/02 05:41:03;;;;;;;2.70;1.60;;;10.30;99.90;;;;;;5040893;28;20497;-69
2022/11/02 05:43:33;;;;;;;1.63;1.40;;;10.30;99.90;;;;;;5052337;28;20458;-70
2022/11/02 05:46:02;;;;;;;4.70;1.43;;;10.30;99.90;;;;;;5039541;28;20483;-71
2022/11/02 05:48:30;;;;;;;3.07;1.20;;;10.30;99.90;;;;;;5057243;28;20508;-70
2022/11/02 05:50:58;;;;;;;5.80;1.60;;;10.30;99.90;;;;;;5035395;28;20971;-71
2022/11/02 05:53:25;;;;;;;1.43;1.30;;;10.30;99.90;;;;;;5041288;28;20459;-71
2022/11/02 05:55:51;;;;;;;4.97;1.87;;;10.30;99.90;;;;;;5040562;28;20474;-71
2022/11/02 05:58:17;;;;;;;4.03;1.63;;;10.30;99.90;;;;;;5048026;28;21053;-71
2022/11/02 06:00:42;;;;;;;1.63;1.07;;;10.20;99.90;;;;;;5040917;28;20542;-72
2022/11/02 06:03:08;;;;;;;3.53;1.63;;;10.20;99.90;;;;;;5055544;28;20217;-71
2022/11/02 06:05:34;;;;;;;5.67;1.60;;;10.20;99.90;;;;;;5046324;28;20222;-71
2022/11/02 06:08:00;;;;;;;3.33;1.97;;;10.20;99.90;;;;;;5059938;28;20224;-71
2022/11/02 06:10:28;;;;;;;2.57;1.57;;;10.20;99.90;;;;;;5064371;28;20274;-69
2022/11/02 06:12:58;;;;;;;1.03;0.80;;;10.20;99.90;;;;;;5024699;28;20458;-71
2022/11/02 06:15:24;;;;;;;6.50;1.83;;;10.20;99.90;;;;;;5051562;28;20475;-71
2022/11/02 06:17:50;;;;;;;5.23;1.50;;;10.20;99.90;;;;;;5043171;28;20451;-71
2022/11/02 06:20:17;;;;;;;4.83;1.50;;;10.20;99.90;;;;;;5044624;28;20868;-71
2022/11/02 06:22:43;;;;;;;6.90;2.03;;;10.20;99.90;;;;;;5052530;28;20870;-71
2022/11/02 06:25:09;;;;;;;2.93;1.50;;;10.30;99.90;;;;;;5053797;28;20451;-71
2022/11/02 06:27:35;;;;;;;5.60;1.40;;;10.30;99.90;;;;;;5048846;28;20455;-70
2022/11/02 06:30:03;;;;;;;4.33;1.90;;;10.30;99.90;;;;;;5051367;28;20488;-72
2022/11/02 06:32:28;;;;;;;4.80;2.13;;;10.30;99.90;;;;;;5046785;28;20498;-71
2022/11/02 06:34:54;;;;;;;3.30;2.10;;;10.30;99.90;;;;;;5047399;28;20483;-71
2022/11/02 06:37:21;;;;;;;3.37;1.50;;;10.30;99.90;;;;;;5050407;28;20224;-71
2022/11/02 06:39:47;;;;;;;2.73;1.93;;;10.30;99.90;;;;;;5031166;28;20220;-71
2022/11/02 06:42:13;;;;;;;3.10;2.03;;;10.30;99.90;;;;;;5047259;28;20469;-71
2022/11/02 06:44:39;;;;;;;4.37;2.63;;;10.30;99.90;;;;;;5044274;28;20235;-71
2022/11/02 06:47:04;;;;;;;3.27;2.33;;;10.30;99.90;;;;;;5047226;28;20278;-70
2022/11/02 06:49:30;;;;;;;6.07;2.53;;;10.20;99.90;;;;;;5066459;28;20607;-71
2022/11/02 06:51:56;;;;;;;5.20;1.70;;;10.20;99.90;;;;;;5040357;28;20216;-72
2022/11/02 06:54:21;;;;;;;4.53;1.27;;;10.20;99.90;;;;;;5049481;28;20216;-71
2022/11/02 06:56:47;;;;;;;2.50;1.40;;;10.30;99.90;;;;;;5049978;28;20216;-70
2022/11/02 06:59:13;;;;;;;6.07;1.90;;;10.30;99.90;;;;;;5046401;28;20235;-72
2022/11/02 07:01:38;;;;;;;2.80;1.43;;;10.30;99.90;;;;;;5047583;28;20244;-71
2022/11/02 07:04:04;;;;;;;5.47;1.80;;;10.30;99.90;;;;;;5045405;28;20231;-71
2022/11/02 07:06:29;;;;;;;4.23;1.90;;;10.30;99.90;;;;;;5044310;28;20215;-71
2022/11/02 07:08:55;;;;;;;5.43;1.93;;;10.30;99.90;;;;;;5049055;28;20235;-73
2022/11/02 07:11:21;;;;;;;6.10;1.73;;;10.30;99.90;;;;;;5049047;28;20216;-71
2022/11/02 07:13:47;;;;;;;7.83;1.63;;;10.30;99.90;;;;;;5048454;28;20481;-71
2022/11/02 07:16:13;;;;;;;1.40;1.27;;;10.40;99.90;;;;;;5048265;28;20315;-71
2022/11/02 07:18:40;;;;;;;3.70;1.30;;;10.40;99.90;;;;;;5042900;28;20220;-73
2022/11/02 07:21:06;;;;;;;2.00;1.47;;;10.40;99.90;;;;;;5044671;28;21012;-72
2022/11/02 07:23:32;;;;;;;3.57;1.93;;;10.50;99.90;;;;;;5041597;28;20544;-70
2022/11/02 07:26:00;;;;;;;4.33;1.67;;;10.50;99.90;;;;;;5037323;28;20492;-70
2022/11/02 07:28:26;;;;;;;2.07;1.60;;;10.50;99.90;;;;;;5056193;28;20225;-72
2022/11/02 07:30:53;;;;;;;4.93;1.70;;;10.60;99.90;;;;;;5034561;28;20465;-72
2022/11/02 07:33:19;;;;;;;4.10;1.70;;;10.60;99.90;;;;;;5032212;28;20215;-69
2022/11/02 07:35:45;;;;;;;2.53;1.57;;;10.70;99.90;;;;;;5026341;28;20461;-71
2022/11/02 07:38:11;;;;;;;1.90;1.53;;;10.70;99.90;;;;;;5040853;28;20223;-73
2022/11/02 07:40:37;;;;;;;7.17;1.63;;;10.80;99.90;;;;;;5036451;28;20244;-71
2022/11/02 07:43:04;;;;;;;4.10;1.80;;;10.80;99.90;;;;;;5045654;28;20693;-71
2022/11/02 07:45:40;;;;;;;4.83;1.90;;;10.90;99.90;;;;;;5035954;28;20438;-71
2022/11/02 07:48:06;;;;;;;2.30;1.30;;;10.90;99.90;;;;;;5047123;28;20962;-71
2022/11/02 07:50:31;;;;;;;6.20;1.60;;;11.00;99.90;;;;;;5033469;28;20235;-71
2022/11/02 07:52:57;;;;;;;4.37;1.77;;;11.00;99.90;;;;;;5035599;28;20216;-70
2022/11/02 07:55:26;;;;;;;4.37;1.97;;;11.10;99.90;;;;;;5039315;28;20214;-71
2022/11/02 07:57:52;;;;;;;4.73;1.43;;;11.10;99.90;;;;;;5029739;28;20316;-72
2022/11/02 08:00:18;;;;;;;4.20;2.03;;;11.20;99.90;;;;;;5024825;28;20519;-71
2022/11/02 08:02:44;;;;;;;6.10;1.93;;;11.30;99.90;;;;;;5045801;28;20450;-71
2022/11/02 08:05:09;;;;;;;4.90;2.00;;;11.30;99.90;;;;;;5054921;28;20717;-71
2022/11/02 08:07:35;;;;;;;5.33;2.00;;;11.40;99.90;;;;;;5044928;28;20220;-68
2022/11/02 08:10:00;;;;;;;3.20;1.93;;;11.50;99.90;;;;;;5043127;28;20228;-72
2022/11/02 08:12:26;;;;;;;4.10;2.10;;;11.60;99.90;;;;;;5029054;28;20232;-70
2022/11/02 08:14:52;;;;;;;2.50;1.63;;;11.60;99.90;;;;;;5035990;28;20752;-72
2022/11/02 08:17:18;;;;;;;9.33;2.30;;;11.70;99.90;;;;;;5038147;28;20238;-71
2022/11/02 08:19:43;;;;;;;3.27;1.97;;;11.80;99.90;;;;;;5040641;28;20231;-71
2022/11/02 08:22:09;;;;;;;4.83;2.33;;;11.80;99.90;;;;;;5035019;28;20286;-71
2022/11/02 08:24:34;;;;;;;11.67;1.97;;;11.80;99.90;;;;;;5035715;28;20219;-70
2022/11/02 08:27:00;;;;;;;6.13;2.30;;;11.90;99.90;;;;;;5040464;28;20231;-71
2022/11/02 08:29:26;;;;;;;10.67;2.47;;;12.00;99.90;;;;;;5034678;28;20311;-71
2022/11/02 08:31:51;;;;;;;4.73;1.97;;;12.10;99.90;;;;;;5034118;28;20235;-71
2022/11/02 08:34:17;;;;;;;5.33;2.37;;;12.10;99.90;;;;;;5042004;28;20230;-71
2022/11/02 08:36:43;;;;;;;4.40;2.03;;;12.20;99.90;;;;;;5035793;28;20219;-71
2022/11/02 08:39:08;;;;;;;7.60;2.07;;;12.30;99.90;;;;;;5038387;28;20238;-71
2022/11/02 08:41:34;;;;;;;6.93;2.20;;;12.40;99.90;;;;;;5036797;28;20277;-70
2022/11/02 08:43:59;;;;;;;2.93;1.70;;;12.50;99.90;;;;;;5039005;28;20256;-72
2022/11/02 08:46:25;;;;;;;3.20;1.63;;;12.50;99.90;;;;;;5032622;28;20216;-68
2022/11/02 08:48:51;;;;;;;7.40;1.97;;;12.50;99.90;;;;;;5043752;28;20242;-68
2022/11/02 08:51:16;;;;;;;2.77;1.70;;;12.60;99.90;;;;;;5030806;28;20231;-69
2022/11/02 08:53:42;;;;;;;4.93;2.07;;;12.70;99.90;;;;;;5036228;28;20228;-69
2022/11/02 08:56:07;;;;;;;2.93;2.40;;;12.80;99.90;;;;;;5037483;28;20219;-68
2022/11/02 08:58:33;;;;;;;1.57;1.37;;;12.80;99.90;;;;;;5026660;28;20211;-68
2022/11/02 09:00:59;;;;;;;9.47;1.83;;;12.90;99.90;;;;;;5037189;28;20235;-68
2022/11/02 09:03:24;;;;;;;3.73;1.83;;;13.00;99.90;;;;;;5037714;28;20222;-70
2022/11/02 09:05:56;;;;;;;13.73;2.70;;;13.10;99.90;;;;;;5044231;28;20227;-69
2022/11/02 09:08:22;;;;;;;2.47;1.57;;;13.10;99.90;;;;;;5039540;28;20303;-71
2022/11/02 09:10:50;;;;;;;2.03;1.80;;;13.20;99.90;;;;;;5021346;28;20558;-68
2022/11/02 09:13:19;;;;;;;5.60;1.87;;;13.20;99.90;;;;;;5037911;28;20219;-69
2022/11/02 09:15:48;;;;;;;5.63;1.70;;;13.30;99.90;;;;;;5034388;28;20451;-68
2022/11/02 09:18:14;;;;;;;3.90;2.30;;;13.40;99.90;;;;;;5049241;28;20459;-68
2022/11/02 09:20:40;;;;;;;3.43;1.30;;;13.40;99.90;;;;;;5042764;28;20450;-69
2022/11/02 09:23:05;;;;;;;8.10;2.27;;;13.50;99.90;;;;;;5033907;28;20223;-68
2022/11/02 09:25:32;;;;;;;8.73;3.40;;;13.50;99.90;;;;;;5041275;28;20567;-68
2022/11/02 09:27:58;;;;;;;4.00;2.03;;;13.60;99.90;;;;;;5036993;28;20700;-69
2022/11/02 09:30:25;;;;;;;4.97;1.93;;;13.60;99.90;;;;;;5051266;28;20469;-70
2022/11/02 09:32:59;;;;;;;4.23;1.67;;;13.70;99.90;;;;;;5052683;28;20230;-69
2022/11/02 09:35:27;;;;;;;1.70;1.60;;;13.70;99.90;;;;;;5036781;28;20463;-70
2022/11/02 09:37:52;;;;;;;2.83;1.47;;;13.70;99.90;;;;;;5038481;28;20579;-71
2022/11/02 09:40:24;;;;;;;2.93;1.80;;;13.70;99.90;;;;;;5034785;28;20568;-70
2022/11/02 09:43:11;;;;;;;3.53;1.40;;;13.80;99.90;;;;;;5040177;28;20298;-70
2022/11/02 09:46:02;;;;;;;3.27;1.80;;;14.00;99.90;;;;;;5048860;28;20501;-70
2022/11/02 09:48:46;;;;;;;8.53;2.20;;;14.00;99.90;;;;;;5041558;28;20516;-70
2022/11/02 09:51:30;;;;;;;4.87;1.70;;;14.10;99.90;;;;;;5053986;28;21030;-70
2022/11/02 09:54:05;;;;;;;4.93;1.43;;;14.00;99.90;;;;;;5033044;28;20988;-71
2022/11/02 09:56:32;;;;;;;3.50;1.77;;;14.00;99.90;;;;;;5035105;28;20479;-70
2022/11/02 09:59:10;;;;;;;6.17;1.83;;;13.90;99.90;;;;;;5036005;28;20592;-70
2022/11/02 10:01:48;;;;;;;7.37;4.57;;;13.90;99.90;;;;;;5034486;28;20863;-69
2022/11/02 10:04:43;;;;;;;9.23;6.20;;;14.00;99.90;;;;;;5036316;28;20457;-68
2022/11/02 10:07:09;;;;;;;6.27;3.53;;;14.10;99.90;;;;;;5018836;28;20466;-71
2022/11/02 10:09:49;;;;;;;2.83;2.03;;;14.20;99.90;;;;;;5033336;28;20463;-69
2022/11/02 10:12:29;;;;;;;11.83;2.97;;;14.20;99.90;;;;;;5038932;28;20249;-70
2022/11/02 10:15:10;;;;;;;10.33;4.97;;;14.30;99.90;;;;;;5055577;28;20473;-70
2022/11/02 10:17:39;;;;;;;31.93;21.60;;;14.40;99.90;;;;;;5025856;28;20554;-69
2022/11/02 10:20:17;;;;;;;23.47;13.87;;;14.50;99.90;;;;;;5036851;28;20459;-69
2022/11/02 10:22:44;;;;;;;7.40;5.60;;;14.50;99.90;;;;;;5012692;28;20457;-69
2022/11/02 10:25:15;;;;;;;3.50;2.30;;;14.60;99.90;;;;;;5032938;28;20462;-71
2022/11/02 10:27:43;;;;;;;4.47;1.43;;;14.60;99.90;;;;;;5019361;28;20443;-70
2022/11/02 10:30:17;;;;;;;10.17;3.13;;;14.60;99.90;;;;;;5042645;28;20523;-71
2022/11/02 10:32:44;;;;;;;3.17;1.40;;;14.70;99.90;;;;;;5040470;28;20544;-68
2022/11/02 10:35:29;;;;;;;2.90;1.77;;;14.60;99.90;;;;;;5040206;28;20466;-69
2022/11/02 10:38:05;;;;;;;3.90;1.70;;;14.60;99.90;;;;;;5051198;28;20981;-69
2022/11/02 10:40:41;;;;;;;3.33;1.77;;;14.60;99.90;;;;;;5038324;28;20525;-70
2022/11/02 10:43:14;;;;;;;5.67;1.50;;;14.60;99.90;;;;;;5036255;28;20583;-70
2022/11/02 10:45:58;;;;;;;4.30;1.57;;;14.70;99.90;;;;;;5033088;28;20454;-70
2022/11/02 10:48:47;;;;;;;4.57;1.57;;;14.70;99.90;;;;;;5029756;28;20557;-69
2022/11/02 10:51:15;;;;;;;11.50;5.70;;;14.70;99.90;;;;;;5035986;28;20462;-70
2022/11/02 10:53:49;;;;;;;8.60;5.80;;;14.70;99.90;;;;;;5033289;28;20599;-70
2022/11/02 10:56:31;;;;;;;8.57;5.10;;;14.80;99.90;;;;;;5048861;28;20462;-71
2022/11/02 10:59:18;;;;;;;8.00;3.27;;;14.90;99.90;;;;;;5036477;28;20469;-71
2022/11/02 11:02:12;;;;;;;4.23;1.50;;;14.90;99.90;;;;;;5037025;28;20470;-71
2022/11/02 11:04:38;;;;;;;7.47;1.70;;;15.00;99.90;;;;;;5047540;28;20909;-70
2022/11/02 11:07:11;;;;;;;1.70;1.43;;;15.10;99.90;;;;;;5042154;28;20472;-71
2022/11/02 11:09:48;;;;;;;4.63;1.53;;;15.20;99.90;;;;;;5019859;28;20489;-71
2022/11/02 11:12:31;;;;;;;2.57;1.20;;;15.20;99.90;;;;;;5033276;28;20476;-70
2022/11/02 11:15:00;;;;;;;5.67;2.20;;;15.20;99.90;;;;;;5032672;28;20467;-71
2022/11/02 11:17:34;;;;;;;4.40;1.60;;;15.20;99.90;;;;;;5030114;28;20982;-71
2022/11/02 11:20:00;;;;;;;4.73;1.47;;;15.30;99.90;;;;;;5028671;28;20528;-71
2022/11/02 11:22:28;;;;;;;6.17;1.23;;;15.30;99.90;;;;;;5027698;28;20486;-71
2022/11/02 11:25:21;;;;;;;3.97;1.47;;;15.20;99.90;;;;;;5021967;28;20451;-70
2022/11/02 11:27:46;;;;;;;4.20;1.30;;;15.20;99.90;;;;;;5039794;28;20513;-71
2022/11/02 11:30:24;;;;;;;3.47;1.33;;;15.30;99.90;;;;;;5000050;28;1074061;-71
2022/11/02 11:32:50;;;;;;;2.07;1.47;;;15.30;99.90;;;;;;5030977;28;20229;-71
2022/11/02 11:35:18;;;;;;;3.23;1.20;;;15.50;99.90;;;;;;5045765;28;20471;-69
2022/11/02 11:38:12;;;;;;;3.57;1.70;;;15.60;99.90;;;;;;5026710;28;20223;-70
2022/11/02 11:40:42;;;;;;;3.53;1.17;;;15.70;99.90;;;;;;5050387;28;20470;-71
2022/11/02 11:43:14;;;;;;;3.47;1.33;;;15.60;99.90;;;;;;5046312;28;20553;-70
2022/11/02 11:46:03;;;;;;;3.77;0.97;;;15.70;99.90;;;;;;4996652;28;20892;-70
2022/11/02 11:48:35;;;;;;;3.83;1.30;;;15.80;99.90;;;;;;5031663;28;20455;-69
2022/11/02 11:51:02;;;;;;;2.60;0.90;;;15.90;99.90;;;;;;5037085;28;20491;-70
2022/11/02 11:53:28;;;;;;;1.30;0.83;;;15.90;99.90;;;;;;5026861;28;20459;-70
2022/11/02 11:55:59;;;;;;;2.83;1.20;;;16.00;99.90;;;;;;5044018;28;20470;-70
2022/11/02 11:58:25;;;;;;;3.70;1.40;;;16.00;99.90;;;;;;5040596;28;20212;-71
2022/11/02 12:01:03;;;;;;;3.13;1.70;;;16.10;99.90;;;;;;5033786;28;20501;-71
2022/11/02 12:03:29;;;;;;;3.03;1.20;;;16.10;99.90;;;;;;5055637;28;20467;-68
2022/11/02 12:06:24;;;;;;;4.43;3.57;;;16.20;99.90;;;;;;5033454;28;20482;-70
2022/11/02 12:09:18;;;;;;;7.63;4.13;;;16.20;99.90;;;;;;5042282;28;20692;-69
2022/11/02 12:12:12;;;;;;;11.97;5.80;;;16.40;99.90;;;;;;5041680;28;20565;-70
2022/11/02 12:15:00;;;;;;;5.00;3.20;;;16.40;99.90;;;;;;5048939;28;20462;-69
2022/11/02 12:17:52;;;;;;;8.90;6.57;;;16.40;99.90;;;;;;5048567;28;20511;-71
2022/11/02 12:20:48;;;;;;;8.20;4.43;;;16.30;99.90;;;;;;5036939;28;20524;-71
2022/11/02 12:23:48;;;;;;;6.53;1.57;;;16.20;99.90;;;;;;5054469;28;20462;-69
2022/11/02 12:26:25;;;;;;;6.10;1.53;;;16.10;99.90;;;;;;5042421;28;20455;-70
2022/11/02 12:29:34;;;;;;;3.40;1.67;;;16.10;99.90;;;;;;5043707;28;20508;-71
2022/11/02 12:32:14;;;;;;;2.30;1.50;;;16.20;99.90;;;;;;5038347;28;20469;-69
2022/11/02 12:35:08;;;;;;;4.43;1.77;;;16.30;99.90;;;;;;5043934;28;20462;-71
2022/11/02 12:38:06;;;;;;;2.50;1.20;;;16.30;99.90;;;;;;5021481;28;20462;-71
2022/11/02 12:41:01;;;;;;;1.53;1.23;;;16.40;99.90;;;;;;5033060;28;20987;-70
2022/11/02 12:43:45;;;;;;;3.00;1.00;;;16.30;99.90;;;;;;5031989;28;20540;-70
2022/11/02 12:46:53;;;;;;;3.40;1.40;;;16.40;99.90;;;;;;5023139;28;20481;-68
2022/11/02 12:49:36;;;;;;;3.50;1.47;;;16.50;99.90;;;;;;5036897;28;20454;-69
2022/11/02 12:52:23;;;;;;;3.27;1.70;;;16.40;99.90;;;;;;5031165;28;20498;-71
2022/11/02 12:54:54;;;;;;;2.20;0.90;;;16.50;99.90;;;;;;5033325;28;20478;-70
2022/11/02 12:57:23;;;;;;;2.37;1.00;;;16.50;99.90;;;;;;5040815;28;20461;-71
2022/11/02 12:59:58;;;;;;;3.10;1.30;;;16.60;99.90;;;;;;5040195;28;20853;-70
2022/11/02 13:02:26;;;;;;;1.30;1.10;;;16.60;99.90;;;;;;5051309;28;20979;-70
2022/11/02 13:05:13;;;;;;;3.20;1.80;;;16.60;99.90;;;;;;5045909;28;20477;-71
2022/11/02 13:07:49;;;;;;;2.30;1.00;;;16.60;99.90;;;;;;5014709;28;20437;-71
2022/11/02 13:10:23;;;;;;;2.43;0.90;;;16.60;99.90;;;;;;5018420;28;20470;-70
2022/11/02 13:12:57;;;;;;;3.13;1.10;;;16.60;99.90;;;;;;5022985;28;20985;-69
2022/11/02 13:15:26;;;;;;;2.00;1.33;;;16.60;99.90;;;;;;5017621;28;21225;-69
2022/11/02 13:17:53;;;;;;;3.97;1.50;;;16.60;99.90;;;;;;5017536;28;20455;-69
2022/11/02 13:20:22;;;;;;;3.47;1.70;;;16.60;99.90;;;;;;5019931;28;20486;-70